createdAt,value
2022-08-31T00:04:32.122Z,2.53
2022-08-31T00:09:33.830Z,5.93
2022-08-31T00:14:35.046Z,4.35
2022-08-31T00:19:36.270Z,3.23
2022-08-31T00:24:37.502Z,5.50
2022-08-31T00:29:38.777Z,5.77
2022-08-31T00:34:40.065Z,2.40
2022-08-31T00:39:45.429Z,2.00
2022-08-31T00:44:46.716Z,3.60
2022-08-31T00:49:50.719Z,2.97
2022-08-31T00:54:55.846Z,3.03
2022-08-31T00:59:59.816Z,7.97
2022-08-31T01:05:01.158Z,1.97
2022-08-31T01:10:03.128Z,4.67
2022-08-31T01:15:06.988Z,4.70
2022-08-31T01:20:29.636Z,3.80
2022-08-31T01:25:33.450Z,3.83
2022-08-31T01:30:35.872Z,3.30
2022-08-31T01:35:38.465Z,7.60
2022-08-31T01:40:53.948Z,2.70
2022-08-31T01:45:55.457Z,3.67
2022-08-31T01:50:56.672Z,4.15
2022-08-31T01:55:58.280Z,3.33
2022-08-31T02:00:59.877Z,2.55
2022-08-31T02:06:12.738Z,5.78
2022-08-31T02:11:14.936Z,4.67
2022-08-31T02:16:16.362Z,2.90
2022-08-31T02:21:17.731Z,2.97
2022-08-31T02:26:19.518Z,4.97
2022-08-31T02:31:20.945Z,5.33
2022-08-31T02:36:30.828Z,2.40
2022-08-31T02:41:33.477Z,4.63
2022-08-31T02:46:35.191Z,6.63
2022-08-31T02:51:55.023Z,4.60
2022-08-31T02:56:56.448Z,2.65
2022-08-31T03:01:57.764Z,4.60
2022-08-31T03:06:59.237Z,4.10
2022-08-31T03:12:01.193Z,7.07
2022-08-31T03:17:02.437Z,2.73
2022-08-31T03:22:03.800Z,3.50
2022-08-31T03:27:05.752Z,3.10
2022-08-31T03:32:07.220Z,3.77
2022-08-31T03:37:11.641Z,6.30
2022-08-31T03:42:15.329Z,5.93
2022-08-31T03:47:16.869Z,7.38
2022-08-31T03:52:20.975Z,3.35
2022-08-31T03:57:30.136Z,4.80
2022-08-31T04:02:37.720Z,5.67
2022-08-31T04:07:58.260Z,5.00
2022-08-31T04:13:29.919Z,4.43
2022-08-31T04:18:50.514Z,3.77
2022-08-31T04:23:53.196Z,4.87
2022-08-31T04:28:55.508Z,3.43
2022-08-31T04:33:57.210Z,6.87
2022-08-31T04:39:01.121Z,4.97
2022-08-31T04:44:04.310Z,5.93
2022-08-31T04:49:08.461Z,3.80
2022-08-31T04:54:11.872Z,3.57
2022-08-31T04:59:15.953Z,3.37
2022-08-31T05:04:37.086Z,4.03
2022-08-31T05:09:38.586Z,5.50
2022-08-31T05:14:39.945Z,3.67
2022-08-31T05:19:54.388Z,6.47
2022-08-31T05:24:55.687Z,4.00
2022-08-31T05:29:56.844Z,3.77
2022-08-31T05:35:24.822Z,4.80
2022-08-31T05:40:27.344Z,6.67
2022-08-31T05:45:30.080Z,5.73
2022-08-31T05:50:31.849Z,3.70
2022-08-31T05:55:35.600Z,3.60
2022-08-31T06:00:38.839Z,3.73
2022-08-31T06:06:00.194Z,5.73
2022-08-31T06:11:03.401Z,10.37
2022-08-31T06:16:06.238Z,6.97
2022-08-31T06:21:11.821Z,5.50
2022-08-31T06:26:15.307Z,5.67
2022-08-31T06:31:22.991Z,3.93
2022-08-31T06:36:27.248Z,6.40
2022-08-31T06:41:41.504Z,5.90
2022-08-31T06:47:02.406Z,4.45
2022-08-31T06:52:07.904Z,9.90
2022-08-31T06:57:11.238Z,4.75
2022-08-31T07:02:54.727Z,7.38
2022-08-31T07:07:59.428Z,6.13
2022-08-31T07:13:00.990Z,6.38
2022-08-31T07:18:02.796Z,3.60
2022-08-31T07:23:06.161Z,4.72
2022-08-31T07:28:12.787Z,3.72
2022-08-31T07:33:16.102Z,4.60
2022-08-31T07:38:42.383Z,6.90
2022-08-31T07:43:44.942Z,4.78
2022-08-31T07:48:46.323Z,4.18
2022-08-31T07:53:54.685Z,4.22
2022-08-31T07:59:06.697Z,3.72
2022-08-31T08:04:17.730Z,5.38
2022-08-31T08:09:38.171Z,6.10
2022-08-31T08:14:57.182Z,5.97
2022-08-31T08:20:34.353Z,6.82
2022-08-31T08:25:39.061Z,6.60
2022-08-31T08:31:05.234Z,4.35
2022-08-31T08:36:08.271Z,4.75
2022-08-31T08:41:17.792Z,3.30
2022-08-31T08:46:43.210Z,5.05
2022-08-31T08:51:50.041Z,5.55
2022-08-31T08:56:55.986Z,7.40
2022-08-31T09:02:04.214Z,3.75
2022-08-31T09:07:26.466Z,5.10
2022-08-31T09:12:57.815Z,8.75
2022-08-31T09:18:18.260Z,5.72
2022-08-31T09:23:22.912Z,4.10
2022-08-31T09:28:37.272Z,12.93
2022-08-31T09:33:50.271Z,6.22
2022-08-31T09:38:51.621Z,4.93
2022-08-31T09:43:54.612Z,5.00
2022-08-31T09:48:58.780Z,9.77
2022-08-31T09:54:42.017Z,6.18
2022-08-31T09:59:49.257Z,4.75
2022-08-31T10:04:53.829Z,7.72
2022-08-31T10:10:07.663Z,5.65
2022-08-31T10:15:32.841Z,6.00
2022-08-31T10:20:37.503Z,6.57
2022-08-31T10:25:46.526Z,5.85
2022-08-31T10:31:06.757Z,9.93
2022-08-31T10:36:09.379Z,5.13
2022-08-31T10:41:27.057Z,8.75
2022-08-31T10:46:32.430Z,4.90
2022-08-31T10:51:33.981Z,4.95
2022-08-31T10:56:58.533Z,8.88
2022-08-31T11:02:37.042Z,7.53
2022-08-31T11:07:57.361Z,6.50
2022-08-31T11:13:08.431Z,10.38
2022-08-31T11:18:24.450Z,6.82
2022-08-31T11:23:35.995Z,5.28
2022-08-31T11:28:50.139Z,6.22
2022-08-31T11:34:16.735Z,7.28
2022-08-31T11:39:35.146Z,7.43
2022-08-31T11:44:44.989Z,5.28
2022-08-31T11:49:49.666Z,7.25
2022-08-31T11:54:52.136Z,6.40
2022-08-31T11:59:57.831Z,7.68
2022-08-31T12:05:03.415Z,6.50
2022-08-31T12:10:14.077Z,6.78
2022-08-31T12:15:34.201Z,6.40
2022-08-31T12:21:24.455Z,5.57
2022-08-31T12:26:40.662Z,5.93
2022-08-31T12:32:10.721Z,8.40
2022-08-31T12:37:39.390Z,5.85
2022-08-31T12:43:05.140Z,5.85
2022-08-31T12:48:17.267Z,6.00
2022-08-31T12:53:33.623Z,7.85
2022-08-31T12:59:03.048Z,5.63
2022-08-31T13:04:04.372Z,7.03
2022-08-31T13:09:06.181Z,7.53
2022-08-31T13:14:19.699Z,7.43
2022-08-31T13:19:26.013Z,11.48
2022-08-31T13:24:31.036Z,16.35
2022-08-31T13:29:40.328Z,14.88
2022-08-31T13:34:41.797Z,18.13
2022-08-31T13:39:45.348Z,16.65
2022-08-31T13:44:53.408Z,20.27
2022-08-31T13:50:18.941Z,19.80
2022-08-31T13:55:34.674Z,17.92
2022-08-31T14:00:42.411Z,14.98
2022-08-31T14:05:43.770Z,10.65
2022-08-31T14:10:47.168Z,8.85
2022-08-31T14:15:55.608Z,7.18
2022-08-31T14:21:23.065Z,6.85
2022-08-31T14:26:27.358Z,6.90
2022-08-31T14:31:33.214Z,5.85
2022-08-31T14:36:43.868Z,6.47
2022-08-31T14:41:45.371Z,6.43
2022-08-31T14:46:46.571Z,6.65
2022-08-31T14:51:47.912Z,5.55
2022-08-31T14:56:50.588Z,5.97
2022-08-31T15:01:51.730Z,8.77
2022-08-31T15:06:57.484Z,12.30
2022-08-31T15:12:01.841Z,13.77
2022-08-31T15:17:06.035Z,7.25
2022-08-31T15:22:10.988Z,9.13
2022-08-31T15:27:14.811Z,7.47
2022-08-31T15:32:16.954Z,5.57
2022-08-31T15:37:18.488Z,8.70
2022-08-31T15:42:20.492Z,5.15
2022-08-31T15:47:43.391Z,8.73
2022-08-31T15:52:51.115Z,6.78
2022-08-31T15:57:55.062Z,3.83
2022-08-31T16:02:56.800Z,5.90
2022-08-31T16:07:58.257Z,8.95
2022-08-31T16:13:02.359Z,5.03
2022-08-31T16:18:05.073Z,6.57
2022-08-31T16:23:06.912Z,6.68
2022-08-31T16:28:09.001Z,5.10
2022-08-31T16:33:10.974Z,5.63
2022-08-31T16:38:13.449Z,8.50
2022-08-31T16:43:15.118Z,6.47
2022-08-31T16:48:34.885Z,6.28
2022-08-31T16:53:36.057Z,10.13
2022-08-31T16:58:53.652Z,8.13
2022-08-31T17:03:57.552Z,7.90
2022-08-31T17:09:08.423Z,4.97
2022-08-31T17:14:11.888Z,4.95
2022-08-31T17:19:13.924Z,4.85
2022-08-31T17:24:27.575Z,6.18
2022-08-31T17:29:34.209Z,7.47
2022-08-31T17:34:50.818Z,8.07
2022-08-31T17:39:53.145Z,7.93
2022-08-31T17:44:56.016Z,4.57
2022-08-31T17:49:57.338Z,7.70
2022-08-31T17:55:01.063Z,6.20
2022-08-31T18:00:04.035Z,6.28
2022-08-31T18:05:11.729Z,5.72
2022-08-31T18:10:14.047Z,10.20
2022-08-31T18:15:18.191Z,6.82
2022-08-31T18:20:19.602Z,5.68
2022-08-31T18:25:20.925Z,6.30
2022-08-31T18:30:22.358Z,6.72
2022-08-31T18:35:29.440Z,7.07
2022-08-31T18:40:49.407Z,9.25
2022-08-31T18:45:51.366Z,9.85
2022-08-31T18:50:54.468Z,7.28
2022-08-31T18:56:08.864Z,10.10
2022-08-31T19:01:12.430Z,8.45
2022-08-31T19:06:22.551Z,12.52
2022-08-31T19:11:24.444Z,8.95
2022-08-31T19:16:27.916Z,10.85
2022-08-31T19:21:32.811Z,10.50
2022-08-31T19:26:52.945Z,11.77
2022-08-31T19:31:56.207Z,13.57
2022-08-31T19:36:59.199Z,8.40
2022-08-31T19:42:04.904Z,9.00
2022-08-31T19:47:07.583Z,11.18
2022-08-31T19:52:09.029Z,11.55
2022-08-31T19:57:10.312Z,9.23
2022-08-31T20:02:13.262Z,12.25
2022-08-31T20:07:15.150Z,12.82
2022-08-31T20:12:17.865Z,12.60
2022-08-31T20:17:19.712Z,15.10
2022-08-31T20:22:23.181Z,10.15
2022-08-31T20:27:27.697Z,11.40
2022-08-31T20:32:29.400Z,11.80
2022-08-31T20:37:31.380Z,7.72
2022-08-31T20:42:32.499Z,6.10
2022-08-31T20:47:52.875Z,10.25
2022-08-31T20:52:56.060Z,8.30
2022-08-31T20:57:57.515Z,3.67
2022-08-31T21:03:02.818Z,6.55
2022-08-31T21:08:04.840Z,5.53
2022-08-31T21:13:08.718Z,3.33
2022-08-31T21:18:11.573Z,6.97
2022-08-31T21:23:13.003Z,6.00
2022-08-31T21:28:16.372Z,7.60
2022-08-31T21:33:18.225Z,7.30
2022-08-31T21:38:20.199Z,4.25
2022-08-31T21:43:21.784Z,3.08
2022-08-31T21:48:25.720Z,5.35
2022-08-31T21:53:27.559Z,6.32
2022-08-31T21:58:29.226Z,5.05
2022-08-31T22:03:34.861Z,3.50
2022-08-31T22:08:38.242Z,3.92
2022-08-31T22:13:43.180Z,4.38
2022-08-31T22:19:06.008Z,5.07
2022-08-31T22:24:10.289Z,5.05
2022-08-31T22:29:21.274Z,7.47
2022-08-31T22:34:23.373Z,6.18
2022-08-31T22:39:27.608Z,6.72
2022-08-31T22:44:33.441Z,9.02
2022-08-31T22:49:34.625Z,8.68
2022-08-31T22:54:35.876Z,4.72
2022-08-31T22:59:38.220Z,5.75
2022-08-31T23:04:43.852Z,5.30
2022-08-31T23:09:45.324Z,8.23
2022-08-31T23:14:46.705Z,5.38
2022-08-31T23:19:50.211Z,5.35
2022-08-31T23:24:51.363Z,6.65
2022-08-31T23:29:58.348Z,8.57
2022-08-31T23:35:02.272Z,10.63
2022-08-31T23:40:05.502Z,8.77
2022-08-31T23:45:10.440Z,7.90
2022-08-31T23:50:13.998Z,7.07
2022-08-31T23:55:15.256Z,7.13
